sensor_id;sensor_type;location;lat;lon;timestamp;P1;durP1;ratioP1;P2;durP2;ratioP2
73140;SDS011;61339;50.558;4.696;2023-07-13T00:02:20;7.95;;;1.60;;
73140;SDS011;61339;50.558;4.696;2023-07-13T00:04:46;8.50;;;1.80;;
73140;SDS011;61339;50.558;4.696;2023-07-13T00:07:12;8.77;;;1.77;;
73140;SDS011;61339;50.558;4.696;2023-07-13T00:09:39;7.32;;;2.00;;
73140;SDS011;61339;50.558;4.696;2023-07-13T00:12:05;7.13;;;2.10;;
73140;SDS011;61339;50.558;4.696;2023-07-13T00:14:46;9.55;;;1.70;;
73140;SDS011;61339;50.558;4.696;2023-07-13T00:17:11;5.57;;;1.60;;
73140;SDS011;61339;50.558;4.696;2023-07-13T00:19:38;12.20;;;2.72;;
73140;SDS011;61339;50.558;4.696;2023-07-13T00:22:03;9.97;;;1.70;;
73140;SDS011;61339;50.558;4.696;2023-07-13T00:24:29;6.82;;;1.55;;
73140;SDS011;61339;50.558;4.696;2023-07-13T00:26:54;7.20;;;1.70;;
73140;SDS011;61339;50.558;4.696;2023-07-13T00:29:20;7.97;;;1.73;;
73140;SDS011;61339;50.558;4.696;2023-07-13T00:31:46;6.77;;;1.57;;
73140;SDS011;61339;50.558;4.696;2023-07-13T00:34:11;8.13;;;1.60;;
73140;SDS011;61339;50.558;4.696;2023-07-13T00:36:37;9.43;;;2.20;;
73140;SDS011;61339;50.558;4.696;2023-07-13T00:39:02;6.90;;;1.60;;
73140;SDS011;61339;50.558;4.696;2023-07-13T00:41:29;8.68;;;2.05;;
73140;SDS011;61339;50.558;4.696;2023-07-13T00:43:54;7.65;;;2.33;;
73140;SDS011;61339;50.558;4.696;2023-07-13T00:46:22;8.83;;;1.90;;
73140;SDS011;61339;50.558;4.696;2023-07-13T00:48:55;10.75;;;1.95;;
73140;SDS011;61339;50.558;4.696;2023-07-13T00:51:27;8.95;;;1.98;;
73140;SDS011;61339;50.558;4.696;2023-07-13T00:53:57;6.97;;;1.70;;
73140;SDS011;61339;50.558;4.696;2023-07-13T00:56:25;9.52;;;1.90;;
73140;SDS011;61339;50.558;4.696;2023-07-13T00:58:52;7.60;;;2.10;;
73140;SDS011;61339;50.558;4.696;2023-07-13T01:01:18;7.78;;;1.98;;
73140;SDS011;61339;50.558;4.696;2023-07-13T01:03:43;8.60;;;1.73;;
73140;SDS011;61339;50.558;4.696;2023-07-13T01:06:09;11.23;;;2.20;;
73140;SDS011;61339;50.558;4.696;2023-07-13T01:08:34;9.93;;;2.00;;
73140;SDS011;61339;50.558;4.696;2023-07-13T01:10:59;7.13;;;1.90;;
73140;SDS011;61339;50.558;4.696;2023-07-13T01:13:25;9.03;;;2.10;;
73140;SDS011;61339;50.558;4.696;2023-07-13T01:15:51;9.83;;;2.30;;
73140;SDS011;61339;50.558;4.696;2023-07-13T01:18:18;7.97;;;2.10;;
73140;SDS011;61339;50.558;4.696;2023-07-13T01:20:50;11.05;;;2.08;;
73140;SDS011;61339;50.558;4.696;2023-07-13T01:23:23;6.50;;;2.10;;
73140;SDS011;61339;50.558;4.696;2023-07-13T01:25:49;10.70;;;2.40;;
73140;SDS011;61339;50.558;4.696;2023-07-13T01:28:16;9.25;;;2.10;;
73140;SDS011;61339;50.558;4.696;2023-07-13T01:30:43;11.57;;;2.40;;
73140;SDS011;61339;50.558;4.696;2023-07-13T01:33:11;9.80;;;2.55;;
73140;SDS011;61339;50.558;4.696;2023-07-13T01:35:42;12.23;;;2.60;;
73140;SDS011;61339;50.558;4.696;2023-07-13T01:38:09;11.30;;;2.27;;
73140;SDS011;61339;50.558;4.696;2023-07-13T01:40:35;10.82;;;2.80;;
73140;SDS011;61339;50.558;4.696;2023-07-13T01:43:02;9.00;;;2.50;;
73140;SDS011;61339;50.558;4.696;2023-07-13T01:45:27;11.23;;;2.58;;
73140;SDS011;61339;50.558;4.696;2023-07-13T01:47:53;9.93;;;2.53;;
73140;SDS011;61339;50.558;4.696;2023-07-13T01:50:18;15.73;;;3.13;;
73140;SDS011;61339;50.558;4.696;2023-07-13T01:52:44;12.30;;;2.80;;
73140;SDS011;61339;50.558;4.696;2023-07-13T01:55:09;14.03;;;3.07;;
73140;SDS011;61339;50.558;4.696;2023-07-13T01:57:34;12.68;;;3.45;;
73140;SDS011;61339;50.558;4.696;2023-07-13T02:00:02;12.57;;;2.80;;
73140;SDS011;61339;50.558;4.696;2023-07-13T02:02:29;14.60;;;3.53;;
73140;SDS011;61339;50.558;4.696;2023-07-13T02:04:55;12.93;;;3.57;;
73140;SDS011;61339;50.558;4.696;2023-07-13T02:07:21;12.70;;;3.63;;
73140;SDS011;61339;50.558;4.696;2023-07-13T02:09:46;9.17;;;2.87;;
73140;SDS011;61339;50.558;4.696;2023-07-13T02:12:12;9.87;;;2.80;;
73140;SDS011;61339;50.558;4.696;2023-07-13T02:14:37;12.80;;;3.30;;
73140;SDS011;61339;50.558;4.696;2023-07-13T02:17:03;10.63;;;3.33;;
73140;SDS011;61339;50.558;4.696;2023-07-13T02:19:29;11.80;;;3.50;;
73140;SDS011;61339;50.558;4.696;2023-07-13T02:21:54;10.47;;;2.77;;
73140;SDS011;61339;50.558;4.696;2023-07-13T02:24:20;12.40;;;3.00;;
73140;SDS011;61339;50.558;4.696;2023-07-13T02:26:46;11.55;;;3.30;;
73140;SDS011;61339;50.558;4.696;2023-07-13T02:29:11;12.90;;;2.93;;
73140;SDS011;61339;50.558;4.696;2023-07-13T02:31:36;11.70;;;3.00;;
73140;SDS011;61339;50.558;4.696;2023-07-13T02:34:02;11.05;;;2.80;;
73140;SDS011;61339;50.558;4.696;2023-07-13T02:36:29;8.85;;;3.22;;
73140;SDS011;61339;50.558;4.696;2023-07-13T02:38:55;15.55;;;2.88;;
73140;SDS011;61339;50.558;4.696;2023-07-13T02:41:20;8.53;;;2.80;;
73140;SDS011;61339;50.558;4.696;2023-07-13T02:43:47;12.02;;;2.30;;
73140;SDS011;61339;50.558;4.696;2023-07-13T02:46:13;10.70;;;2.77;;
73140;SDS011;61339;50.558;4.696;2023-07-13T02:48:39;11.70;;;2.47;;
73140;SDS011;61339;50.558;4.696;2023-07-13T02:51:04;9.38;;;2.60;;
73140;SDS011;61339;50.558;4.696;2023-07-13T02:53:31;9.33;;;2.20;;
73140;SDS011;61339;50.558;4.696;2023-07-13T02:55:57;9.82;;;2.50;;
73140;SDS011;61339;50.558;4.696;2023-07-13T02:58:22;8.50;;;2.83;;
73140;SDS011;61339;50.558;4.696;2023-07-13T03:00:48;12.87;;;2.53;;
73140;SDS011;61339;50.558;4.696;2023-07-13T03:03:15;9.25;;;2.10;;
73140;SDS011;61339;50.558;4.696;2023-07-13T03:05:41;9.18;;;2.35;;
73140;SDS011;61339;50.558;4.696;2023-07-13T03:08:08;9.23;;;2.40;;
73140;SDS011;61339;50.558;4.696;2023-07-13T03:10:34;9.07;;;2.60;;
73140;SDS011;61339;50.558;4.696;2023-07-13T03:13:00;11.02;;;2.35;;
73140;SDS011;61339;50.558;4.696;2023-07-13T03:15:26;11.50;;;2.63;;
73140;SDS011;61339;50.558;4.696;2023-07-13T03:17:52;15.45;;;2.55;;
73140;SDS011;61339;50.558;4.696;2023-07-13T03:20:17;11.40;;;2.70;;
73140;SDS011;61339;50.558;4.696;2023-07-13T03:22:43;11.63;;;2.50;;
73140;SDS011;61339;50.558;4.696;2023-07-13T03:25:08;14.50;;;2.90;;
73140;SDS011;61339;50.558;4.696;2023-07-13T03:27:34;8.07;;;2.50;;
73140;SDS011;61339;50.558;4.696;2023-07-13T03:29:59;10.15;;;2.67;;
73140;SDS011;61339;50.558;4.696;2023-07-13T03:32:25;15.13;;;3.10;;
73140;SDS011;61339;50.558;4.696;2023-07-13T03:34:51;12.50;;;2.72;;
73140;SDS011;61339;50.558;4.696;2023-07-13T03:37:16;13.00;;;2.60;;
73140;SDS011;61339;50.558;4.696;2023-07-13T03:39:42;10.57;;;2.70;;
73140;SDS011;61339;50.558;4.696;2023-07-13T03:42:07;17.02;;;3.03;;
73140;SDS011;61339;50.558;4.696;2023-07-13T03:44:33;8.57;;;2.60;;
73140;SDS011;61339;50.558;4.696;2023-07-13T03:46:58;13.63;;;2.90;;
73140;SDS011;61339;50.558;4.696;2023-07-13T03:49:24;12.53;;;2.90;;
73140;SDS011;61339;50.558;4.696;2023-07-13T03:51:49;11.03;;;2.90;;
73140;SDS011;61339;50.558;4.696;2023-07-13T03:54:14;13.65;;;2.90;;
73140;SDS011;61339;50.558;4.696;2023-07-13T03:56:40;9.00;;;2.50;;
73140;SDS011;61339;50.558;4.696;2023-07-13T03:59:05;14.70;;;2.60;;
73140;SDS011;61339;50.558;4.696;2023-07-13T04:01:30;9.77;;;2.80;;
73140;SDS011;61339;50.558;4.696;2023-07-13T04:03:56;12.73;;;2.60;;
73140;SDS011;61339;50.558;4.696;2023-07-13T04:06:22;14.30;;;3.03;;
73140;SDS011;61339;50.558;4.696;2023-07-13T04:08:52;11.77;;;3.17;;
73140;SDS011;61339;50.558;4.696;2023-07-13T04:11:20;17.13;;;2.90;;
73140;SDS011;61339;50.558;4.696;2023-07-13T04:13:47;11.32;;;2.80;;
73140;SDS011;61339;50.558;4.696;2023-07-13T04:16:13;14.73;;;2.85;;
73140;SDS011;61339;50.558;4.696;2023-07-13T04:18:39;12.98;;;2.80;;
73140;SDS011;61339;50.558;4.696;2023-07-13T04:21:06;14.07;;;3.07;;
73140;SDS011;61339;50.558;4.696;2023-07-13T04:23:32;10.98;;;2.47;;
73140;SDS011;61339;50.558;4.696;2023-07-13T04:25:57;11.43;;;2.80;;
73140;SDS011;61339;50.558;4.696;2023-07-13T04:28:23;17.13;;;2.90;;
73140;SDS011;61339;50.558;4.696;2023-07-13T04:30:50;11.48;;;2.50;;
73140;SDS011;61339;50.558;4.696;2023-07-13T04:33:16;9.52;;;2.58;;
73140;SDS011;61339;50.558;4.696;2023-07-13T04:35:47;11.97;;;2.57;;
73140;SDS011;61339;50.558;4.696;2023-07-13T04:38:13;14.23;;;2.85;;
73140;SDS011;61339;50.558;4.696;2023-07-13T04:40:42;10.98;;;2.70;;
73140;SDS011;61339;50.558;4.696;2023-07-13T04:43:09;10.65;;;2.85;;
73140;SDS011;61339;50.558;4.696;2023-07-13T04:45:35;13.37;;;3.20;;
73140;SDS011;61339;50.558;4.696;2023-07-13T04:48:01;8.90;;;2.50;;
73140;SDS011;61339;50.558;4.696;2023-07-13T04:50:26;14.87;;;3.60;;
73140;SDS011;61339;50.558;4.696;2023-07-13T04:52:51;14.90;;;3.23;;
73140;SDS011;61339;50.558;4.696;2023-07-13T04:55:17;13.03;;;2.50;;
73140;SDS011;61339;50.558;4.696;2023-07-13T04:57:43;10.13;;;2.55;;
73140;SDS011;61339;50.558;4.696;2023-07-13T05:00:09;8.50;;;2.47;;
73140;SDS011;61339;50.558;4.696;2023-07-13T05:02:37;11.35;;;2.85;;
73140;SDS011;61339;50.558;4.696;2023-07-13T05:05:03;11.02;;;2.88;;
73140;SDS011;61339;50.558;4.696;2023-07-13T05:07:29;8.30;;;2.40;;
73140;SDS011;61339;50.558;4.696;2023-07-13T05:09:54;10.73;;;2.80;;
73140;SDS011;61339;50.558;4.696;2023-07-13T05:12:20;12.47;;;2.60;;
73140;SDS011;61339;50.558;4.696;2023-07-13T05:14:45;11.70;;;2.97;;
73140;SDS011;61339;50.558;4.696;2023-07-13T05:17:11;10.37;;;3.10;;
73140;SDS011;61339;50.558;4.696;2023-07-13T05:19:36;16.37;;;2.90;;
73140;SDS011;61339;50.558;4.696;2023-07-13T05:22:02;10.67;;;2.77;;
73140;SDS011;61339;50.558;4.696;2023-07-13T05:24:29;11.25;;;2.47;;
73140;SDS011;61339;50.558;4.696;2023-07-13T05:26:54;8.55;;;2.30;;
73140;SDS011;61339;50.558;4.696;2023-07-13T05:29:20;11.40;;;2.67;;
73140;SDS011;61339;50.558;4.696;2023-07-13T05:31:47;16.13;;;2.80;;
73140;SDS011;61339;50.558;4.696;2023-07-13T05:34:12;10.57;;;2.70;;
73140;SDS011;61339;50.558;4.696;2023-07-13T05:36:38;12.60;;;2.67;;
73140;SDS011;61339;50.558;4.696;2023-07-13T05:39:03;11.13;;;2.20;;
73140;SDS011;61339;50.558;4.696;2023-07-13T05:41:29;14.75;;;2.70;;
73140;SDS011;61339;50.558;4.696;2023-07-13T05:43:54;13.43;;;2.50;;
73140;SDS011;61339;50.558;4.696;2023-07-13T05:46:20;10.77;;;2.40;;
73140;SDS011;61339;50.558;4.696;2023-07-13T05:48:45;11.70;;;2.43;;
73140;SDS011;61339;50.558;4.696;2023-07-13T05:51:10;10.13;;;2.70;;
73140;SDS011;61339;50.558;4.696;2023-07-13T05:53:36;13.10;;;2.40;;
73140;SDS011;61339;50.558;4.696;2023-07-13T05:56:01;11.50;;;2.50;;
73140;SDS011;61339;50.558;4.696;2023-07-13T05:58:27;14.03;;;2.70;;
73140;SDS011;61339;50.558;4.696;2023-07-13T06:00:59;13.63;;;2.50;;
73140;SDS011;61339;50.558;4.696;2023-07-13T06:03:29;8.82;;;2.47;;
73140;SDS011;61339;50.558;4.696;2023-07-13T06:05:55;14.35;;;2.67;;
73140;SDS011;61339;50.558;4.696;2023-07-13T06:08:20;10.23;;;2.50;;
73140;SDS011;61339;50.558;4.696;2023-07-13T06:10:46;13.33;;;2.53;;
73140;SDS011;61339;50.558;4.696;2023-07-13T06:13:11;9.83;;;2.20;;
73140;SDS011;61339;50.558;4.696;2023-07-13T06:15:36;13.33;;;2.83;;
73140;SDS011;61339;50.558;4.696;2023-07-13T06:18:02;12.53;;;2.53;;
73140;SDS011;61339;50.558;4.696;2023-07-13T06:20:27;12.37;;;2.57;;
73140;SDS011;61339;50.558;4.696;2023-07-13T06:22:54;12.07;;;2.30;;
73140;SDS011;61339;50.558;4.696;2023-07-13T06:25:19;10.70;;;2.17;;
73140;SDS011;61339;50.558;4.696;2023-07-13T06:27:44;10.73;;;2.37;;
73140;SDS011;61339;50.558;4.696;2023-07-13T06:30:10;8.43;;;1.93;;
73140;SDS011;61339;50.558;4.696;2023-07-13T06:32:36;11.15;;;2.60;;
73140;SDS011;61339;50.558;4.696;2023-07-13T06:35:01;9.57;;;1.93;;
73140;SDS011;61339;50.558;4.696;2023-07-13T06:37:27;5.80;;;2.13;;
73140;SDS011;61339;50.558;4.696;2023-07-13T06:39:52;8.60;;;1.98;;
73140;SDS011;61339;50.558;4.696;2023-07-13T06:42:17;9.70;;;2.10;;
73140;SDS011;61339;50.558;4.696;2023-07-13T06:44:43;9.17;;;2.10;;
73140;SDS011;61339;50.558;4.696;2023-07-13T06:47:08;9.13;;;2.00;;
73140;SDS011;61339;50.558;4.696;2023-07-13T06:49:33;10.47;;;1.97;;
73140;SDS011;61339;50.558;4.696;2023-07-13T06:51:59;10.07;;;1.87;;
73140;SDS011;61339;50.558;4.696;2023-07-13T06:54:24;12.73;;;2.53;;
73140;SDS011;61339;50.558;4.696;2023-07-13T06:56:50;11.40;;;2.17;;
73140;SDS011;61339;50.558;4.696;2023-07-13T06:59:15;14.20;;;2.27;;
73140;SDS011;61339;50.558;4.696;2023-07-13T07:01:40;11.17;;;2.10;;
73140;SDS011;61339;50.558;4.696;2023-07-13T07:04:06;8.37;;;1.97;;
73140;SDS011;61339;50.558;4.696;2023-07-13T07:06:31;8.20;;;1.90;;
73140;SDS011;61339;50.558;4.696;2023-07-13T07:08:56;11.35;;;2.30;;
73140;SDS011;61339;50.558;4.696;2023-07-13T07:11:24;9.27;;;1.80;;
73140;SDS011;61339;50.558;4.696;2023-07-13T07:13:50;12.90;;;2.10;;
73140;SDS011;61339;50.558;4.696;2023-07-13T07:16:17;10.17;;;1.90;;
73140;SDS011;61339;50.558;4.696;2023-07-13T07:18:43;8.60;;;2.03;;
73140;SDS011;61339;50.558;4.696;2023-07-13T07:21:08;7.93;;;1.88;;
73140;SDS011;61339;50.558;4.696;2023-07-13T07:23:34;12.83;;;2.37;;
73140;SDS011;61339;50.558;4.696;2023-07-13T07:25:59;9.63;;;1.67;;
73140;SDS011;61339;50.558;4.696;2023-07-13T07:28:25;12.35;;;2.10;;
73140;SDS011;61339;50.558;4.696;2023-07-13T07:30:54;7.83;;;2.10;;
73140;SDS011;61339;50.558;4.696;2023-07-13T07:33:21;7.43;;;1.90;;
73140;SDS011;61339;50.558;4.696;2023-07-13T07:35:47;10.23;;;2.10;;
73140;SDS011;61339;50.558;4.696;2023-07-13T07:38:12;8.48;;;2.00;;
73140;SDS011;61339;50.558;4.696;2023-07-13T07:40:38;6.27;;;1.80;;
73140;SDS011;61339;50.558;4.696;2023-07-13T07:43:05;9.85;;;2.00;;
73140;SDS011;61339;50.558;4.696;2023-07-13T07:45:31;12.90;;;2.05;;
73140;SDS011;61339;50.558;4.696;2023-07-13T07:47:56;6.97;;;2.10;;
73140;SDS011;61339;50.558;4.696;2023-07-13T07:50:24;8.50;;;2.40;;
73140;SDS011;61339;50.558;4.696;2023-07-13T07:52:50;8.20;;;2.43;;
73140;SDS011;61339;50.558;4.696;2023-07-13T07:55:15;6.75;;;1.80;;
73140;SDS011;61339;50.558;4.696;2023-07-13T07:57:41;9.83;;;2.10;;
73140;SDS011;61339;50.558;4.696;2023-07-13T08:00:06;11.83;;;1.80;;
73140;SDS011;61339;50.558;4.696;2023-07-13T08:02:32;6.93;;;1.95;;
73140;SDS011;61339;50.558;4.696;2023-07-13T08:04:58;10.03;;;2.07;;
73140;SDS011;61339;50.558;4.696;2023-07-13T08:07:23;19.10;;;3.60;;
73140;SDS011;61339;50.558;4.696;2023-07-13T08:09:51;11.37;;;2.23;;
73140;SDS011;61339;50.558;4.696;2023-07-13T08:12:17;13.13;;;2.17;;
73140;SDS011;61339;50.558;4.696;2023-07-13T08:14:43;7.83;;;1.97;;
73140;SDS011;61339;50.558;4.696;2023-07-13T08:17:08;13.23;;;2.00;;
73140;SDS011;61339;50.558;4.696;2023-07-13T08:19:33;11.07;;;1.90;;
73140;SDS011;61339;50.558;4.696;2023-07-13T08:21:59;9.53;;;1.90;;
73140;SDS011;61339;50.558;4.696;2023-07-13T08:24:24;8.93;;;1.67;;
73140;SDS011;61339;50.558;4.696;2023-07-13T08:26:50;10.88;;;1.88;;
73140;SDS011;61339;50.558;4.696;2023-07-13T08:29:17;8.67;;;1.87;;
73140;SDS011;61339;50.558;4.696;2023-07-13T08:31:42;12.60;;;1.80;;
73140;SDS011;61339;50.558;4.696;2023-07-13T08:34:08;7.47;;;1.60;;
73140;SDS011;61339;50.558;4.696;2023-07-13T08:36:33;8.13;;;1.87;;
73140;SDS011;61339;50.558;4.696;2023-07-13T08:38:59;9.48;;;2.05;;
73140;SDS011;61339;50.558;4.696;2023-07-13T08:41:24;9.67;;;2.13;;
73140;SDS011;61339;50.558;4.696;2023-07-13T08:43:51;10.10;;;1.83;;
73140;SDS011;61339;50.558;4.696;2023-07-13T08:46:25;8.48;;;1.70;;
73140;SDS011;61339;50.558;4.696;2023-07-13T08:48:53;8.02;;;2.10;;
73140;SDS011;61339;50.558;4.696;2023-07-13T08:54:32;14.85;;;2.30;;
73140;SDS011;61339;50.558;4.696;2023-07-13T08:57:03;9.13;;;2.13;;
73140;SDS011;61339;50.558;4.696;2023-07-13T08:59:37;11.63;;;1.80;;
73140;SDS011;61339;50.558;4.696;2023-07-13T09:04:39;7.60;;;2.10;;
73140;SDS011;61339;50.558;4.696;2023-07-13T09:07:34;7.30;;;1.63;;
73140;SDS011;61339;50.558;4.696;2023-07-13T09:10:28;10.10;;;2.08;;
73140;SDS011;61339;50.558;4.696;2023-07-13T09:15:32;11.77;;;2.03;;
73140;SDS011;61339;50.558;4.696;2023-07-13T09:18:11;8.75;;;1.50;;
73140;SDS011;61339;50.558;4.696;2023-07-13T09:20:50;7.50;;;1.65;;
73140;SDS011;61339;50.558;4.696;2023-07-13T09:23:27;9.50;;;1.75;;
73140;SDS011;61339;50.558;4.696;2023-07-13T09:25:56;10.55;;;1.88;;
73140;SDS011;61339;50.558;4.696;2023-07-13T09:28:51;6.03;;;1.73;;
73140;SDS011;61339;50.558;4.696;2023-07-13T09:31:24;5.93;;;1.60;;
73140;SDS011;61339;50.558;4.696;2023-07-13T09:33:59;9.45;;;1.80;;
73140;SDS011;61339;50.558;4.696;2023-07-13T09:41:49;9.52;;;1.88;;
73140;SDS011;61339;50.558;4.696;2023-07-13T09:46:56;7.70;;;2.00;;
73140;SDS011;61339;50.558;4.696;2023-07-13T09:49:43;6.50;;;1.60;;
73140;SDS011;61339;50.558;4.696;2023-07-13T09:52:13;7.15;;;1.85;;
73140;SDS011;61339;50.558;4.696;2023-07-13T09:54:44;6.30;;;1.33;;
73140;SDS011;61339;50.558;4.696;2023-07-13T09:57:14;7.25;;;1.55;;
73140;SDS011;61339;50.558;4.696;2023-07-13T09:59:43;10.68;;;2.00;;
73140;SDS011;61339;50.558;4.696;2023-07-13T10:02:30;8.27;;;1.80;;
73140;SDS011;61339;50.558;4.696;2023-07-13T10:07:32;9.05;;;1.75;;
73140;SDS011;61339;50.558;4.696;2023-07-13T10:10:02;10.50;;;1.70;;
73140;SDS011;61339;50.558;4.696;2023-07-13T10:12:29;7.60;;;1.70;;
73140;SDS011;61339;50.558;4.696;2023-07-13T10:14:56;9.25;;;1.80;;
73140;SDS011;61339;50.558;4.696;2023-07-13T10:17:32;7.55;;;1.45;;
73140;SDS011;61339;50.558;4.696;2023-07-13T10:20:00;7.18;;;1.70;;
73140;SDS011;61339;50.558;4.696;2023-07-13T10:22:49;7.57;;;1.53;;
73140;SDS011;61339;50.558;4.696;2023-07-13T10:25:20;6.38;;;1.40;;
73140;SDS011;61339;50.558;4.696;2023-07-13T10:27:47;6.35;;;1.55;;
73140;SDS011;61339;50.558;4.696;2023-07-13T10:30:21;9.18;;;1.83;;
73140;SDS011;61339;50.558;4.696;2023-07-13T10:32:58;7.38;;;1.58;;
73140;SDS011;61339;50.558;4.696;2023-07-13T10:35:25;5.20;;;1.50;;
73140;SDS011;61339;50.558;4.696;2023-07-13T10:37:55;5.53;;;1.45;;
73140;SDS011;61339;50.558;4.696;2023-07-13T10:40:36;8.43;;;2.05;;
73140;SDS011;61339;50.558;4.696;2023-07-13T10:43:04;7.32;;;1.40;;
73140;SDS011;61339;50.558;4.696;2023-07-13T10:45:38;5.20;;;1.50;;
73140;SDS011;61339;50.558;4.696;2023-07-13T10:48:04;8.23;;;1.60;;
73140;SDS011;61339;50.558;4.696;2023-07-13T10:50:31;7.43;;;1.77;;
73140;SDS011;61339;50.558;4.696;2023-07-13T10:53:18;5.43;;;1.40;;
73140;SDS011;61339;50.558;4.696;2023-07-13T10:56:02;11.43;;;1.50;;
73140;SDS011;61339;50.558;4.696;2023-07-13T10:58:42;4.20;;;1.25;;
73140;SDS011;61339;50.558;4.696;2023-07-13T11:01:12;6.30;;;1.30;;
73140;SDS011;61339;50.558;4.696;2023-07-13T11:11:47;6.70;;;1.50;;
73140;SDS011;61339;50.558;4.696;2023-07-13T11:14:26;5.57;;;1.30;;
73140;SDS011;61339;50.558;4.696;2023-07-13T11:22:47;5.90;;;1.43;;
73140;SDS011;61339;50.558;4.696;2023-07-13T11:25:25;5.47;;;1.08;;
73140;SDS011;61339;50.558;4.696;2023-07-13T11:27:52;4.22;;;1.20;;
73140;SDS011;61339;50.558;4.696;2023-07-13T11:33:04;5.07;;;1.40;;
73140;SDS011;61339;50.558;4.696;2023-07-13T11:35:40;5.80;;;1.23;;
73140;SDS011;61339;50.558;4.696;2023-07-13T11:38:12;8.13;;;1.20;;
73140;SDS011;61339;50.558;4.696;2023-07-13T11:40:42;3.75;;;1.00;;
73140;SDS011;61339;50.558;4.696;2023-07-13T11:43:11;6.68;;;1.00;;
73140;SDS011;61339;50.558;4.696;2023-07-13T11:45:39;7.53;;;1.17;;
73140;SDS011;61339;50.558;4.696;2023-07-13T11:48:04;5.30;;;1.15;;
73140;SDS011;61339;50.558;4.696;2023-07-13T11:50:30;4.93;;;1.17;;
73140;SDS011;61339;50.558;4.696;2023-07-13T11:52:57;7.63;;;1.30;;
73140;SDS011;61339;50.558;4.696;2023-07-13T11:55:24;4.32;;;1.30;;
73140;SDS011;61339;50.558;4.696;2023-07-13T11:57:59;5.18;;;1.30;;
73140;SDS011;61339;50.558;4.696;2023-07-13T12:00:28;7.93;;;1.55;;
73140;SDS011;61339;50.558;4.696;2023-07-13T12:02:55;4.93;;;1.20;;
73140;SDS011;61339;50.558;4.696;2023-07-13T12:05:24;6.20;;;0.95;;
73140;SDS011;61339;50.558;4.696;2023-07-13T12:07:50;4.10;;;1.05;;
73140;SDS011;61339;50.558;4.696;2023-07-13T12:10:26;5.47;;;1.20;;
73140;SDS011;61339;50.558;4.696;2023-07-13T12:12:58;3.40;;;1.00;;
73140;SDS011;61339;50.558;4.696;2023-07-13T12:15:40;4.22;;;0.80;;
73140;SDS011;61339;50.558;4.696;2023-07-13T12:18:18;4.70;;;1.15;;
73140;SDS011;61339;50.558;4.696;2023-07-13T12:20:47;4.95;;;0.90;;
73140;SDS011;61339;50.558;4.696;2023-07-13T12:23:21;4.50;;;0.70;;
73140;SDS011;61339;50.558;4.696;2023-07-13T12:25:52;7.07;;;1.07;;
73140;SDS011;61339;50.558;4.696;2023-07-13T12:28:31;5.95;;;1.00;;
73140;SDS011;61339;50.558;4.696;2023-07-13T12:31:04;5.90;;;1.00;;
73140;SDS011;61339;50.558;4.696;2023-07-13T12:33:31;4.63;;;0.93;;
73140;SDS011;61339;50.558;4.696;2023-07-13T12:36:02;2.97;;;0.90;;
73140;SDS011;61339;50.558;4.696;2023-07-13T12:38:30;3.83;;;0.80;;
73140;SDS011;61339;50.558;4.696;2023-07-13T12:40:56;5.53;;;0.90;;
73140;SDS011;61339;50.558;4.696;2023-07-13T12:43:22;5.15;;;1.08;;
73140;SDS011;61339;50.558;4.696;2023-07-13T12:45:58;4.40;;;0.80;;
73140;SDS011;61339;50.558;4.696;2023-07-13T12:48:26;4.18;;;1.08;;
73140;SDS011;61339;50.558;4.696;2023-07-13T12:50:55;4.17;;;0.93;;
73140;SDS011;61339;50.558;4.696;2023-07-13T12:53:28;5.70;;;1.00;;
73140;SDS011;61339;50.558;4.696;2023-07-13T12:55:56;3.43;;;0.90;;
73140;SDS011;61339;50.558;4.696;2023-07-13T12:58:39;4.47;;;1.00;;
73140;SDS011;61339;50.558;4.696;2023-07-13T13:01:09;5.32;;;1.05;;
73140;SDS011;61339;50.558;4.696;2023-07-13T13:03:38;5.60;;;0.93;;
73140;SDS011;61339;50.558;4.696;2023-07-13T13:08:40;4.57;;;1.00;;
73140;SDS011;61339;50.558;4.696;2023-07-13T13:11:07;3.63;;;0.80;;
73140;SDS011;61339;50.558;4.696;2023-07-13T13:13:34;4.95;;;1.10;;
73140;SDS011;61339;50.558;4.696;2023-07-13T13:18:42;3.77;;;1.00;;
73140;SDS011;61339;50.558;4.696;2023-07-13T13:21:08;5.57;;;1.85;;
73140;SDS011;61339;50.558;4.696;2023-07-13T13:23:34;6.20;;;2.10;;
73140;SDS011;61339;50.558;4.696;2023-07-13T13:26:00;5.68;;;2.10;;
73140;SDS011;61339;50.558;4.696;2023-07-13T13:28:25;5.63;;;1.97;;
73140;SDS011;61339;50.558;4.696;2023-07-13T13:30:51;4.88;;;1.80;;
73140;SDS011;61339;50.558;4.696;2023-07-13T13:33:17;5.47;;;1.67;;
73140;SDS011;61339;50.558;4.696;2023-07-13T13:35:44;5.78;;;1.50;;
73140;SDS011;61339;50.558;4.696;2023-07-13T13:38:13;5.07;;;2.03;;
73140;SDS011;61339;50.558;4.696;2023-07-13T13:40:41;4.43;;;1.50;;
73140;SDS011;61339;50.558;4.696;2023-07-13T13:43:14;3.72;;;1.10;;
73140;SDS011;61339;50.558;4.696;2023-07-13T13:45:42;5.60;;;1.70;;
73140;SDS011;61339;50.558;4.696;2023-07-13T13:48:13;3.90;;;1.37;;
73140;SDS011;61339;50.558;4.696;2023-07-13T13:50:43;5.20;;;1.90;;
73140;SDS011;61339;50.558;4.696;2023-07-13T13:53:12;5.83;;;1.70;;
73140;SDS011;61339;50.558;4.696;2023-07-13T13:55:40;7.97;;;1.88;;
73140;SDS011;61339;50.558;4.696;2023-07-13T13:58:07;3.10;;;0.88;;
73140;SDS011;61339;50.558;4.696;2023-07-13T14:00:34;4.20;;;1.20;;
73140;SDS011;61339;50.558;4.696;2023-07-13T14:03:00;4.13;;;1.40;;
73140;SDS011;61339;50.558;4.696;2023-07-13T14:05:25;4.53;;;1.10;;
73140;SDS011;61339;50.558;4.696;2023-07-13T14:07:51;5.10;;;1.20;;
73140;SDS011;61339;50.558;4.696;2023-07-13T14:10:18;4.90;;;1.00;;
73140;SDS011;61339;50.558;4.696;2023-07-13T14:12:45;5.10;;;1.20;;
73140;SDS011;61339;50.558;4.696;2023-07-13T14:15:18;5.22;;;1.00;;
73140;SDS011;61339;50.558;4.696;2023-07-13T14:17:46;3.67;;;1.10;;
73140;SDS011;61339;50.558;4.696;2023-07-13T14:20:15;4.10;;;1.07;;
73140;SDS011;61339;50.558;4.696;2023-07-13T14:22:41;4.53;;;1.20;;
73140;SDS011;61339;50.558;4.696;2023-07-13T14:25:13;3.22;;;0.90;;
73140;SDS011;61339;50.558;4.696;2023-07-13T14:27:40;3.40;;;0.95;;
73140;SDS011;61339;50.558;4.696;2023-07-13T14:30:17;6.35;;;1.20;;
73140;SDS011;61339;50.558;4.696;2023-07-13T14:32:44;6.67;;;1.30;;
73140;SDS011;61339;50.558;4.696;2023-07-13T14:35:13;6.43;;;1.23;;
73140;SDS011;61339;50.558;4.696;2023-07-13T14:37:40;4.53;;;1.20;;
73140;SDS011;61339;50.558;4.696;2023-07-13T14:40:13;5.93;;;1.35;;
73140;SDS011;61339;50.558;4.696;2023-07-13T14:42:46;5.55;;;1.40;;
73140;SDS011;61339;50.558;4.696;2023-07-13T14:45:16;6.47;;;1.30;;
73140;SDS011;61339;50.558;4.696;2023-07-13T14:47:43;3.92;;;1.00;;
73140;SDS011;61339;50.558;4.696;2023-07-13T14:52:43;5.13;;;1.48;;
73140;SDS011;61339;50.558;4.696;2023-07-13T14:55:11;5.35;;;1.20;;
73140;SDS011;61339;50.558;4.696;2023-07-13T14:57:41;4.93;;;1.40;;
73140;SDS011;61339;50.558;4.696;2023-07-13T15:00:17;5.80;;;1.52;;
73140;SDS011;61339;50.558;4.696;2023-07-13T15:02:47;5.05;;;1.42;;
73140;SDS011;61339;50.558;4.696;2023-07-13T15:05:19;3.57;;;1.00;;
73140;SDS011;61339;50.558;4.696;2023-07-13T15:07:48;4.55;;;1.30;;
73140;SDS011;61339;50.558;4.696;2023-07-13T15:10:15;4.50;;;1.38;;
73140;SDS011;61339;50.558;4.696;2023-07-13T15:12:45;5.55;;;1.30;;
73140;SDS011;61339;50.558;4.696;2023-07-13T15:15:11;4.17;;;1.30;;
73140;SDS011;61339;50.558;4.696;2023-07-13T15:17:38;5.15;;;1.40;;
73140;SDS011;61339;50.558;4.696;2023-07-13T15:20:06;4.28;;;1.20;;
73140;SDS011;61339;50.558;4.696;2023-07-13T15:22:42;8.38;;;1.50;;
73140;SDS011;61339;50.558;4.696;2023-07-13T15:25:17;5.90;;;1.50;;
73140;SDS011;61339;50.558;4.696;2023-07-13T15:27:44;4.80;;;1.30;;
73140;SDS011;61339;50.558;4.696;2023-07-13T15:30:11;7.32;;;1.80;;
73140;SDS011;61339;50.558;4.696;2023-07-13T15:32:38;4.78;;;1.50;;